Brewton, AL

6:10 AM CST on February 11, 2016 (GMT -0600)
Sellersville | | Change Station
CLOSE
Current Station
Personal Weather Station
Location: Jay, FL
Elevation: 240 ft
Nearby Weather Stations

Elev 240 ft 31.00 °N, 86.94 °W | Updated 3 seconds ago

Clear
Clear
29.3 °F
Feels Like 29 °F
N
0.0
Wind Variable Wind from North
Gusts 0.7 mph

Today
High -- | Low -- °F
--% Chance of Precip.
Yesterday
High -- | Low -- °F
Precip. -- in
Pressure 30.22 in
Visibility 10.0 miles
Clouds Clear
Windchill 29 °F
Dew Point 29 °F
Humidity 99%
Rainfall 0.00 in
Snow Depth Not available.
6:33 AM 5:32 PM
Waxing Crescent, 11% visible
METAR KGZH 111153Z AUTO 00000KT 10SM CLR M01/M03 A3021 RMK AO2 SLP232 T10111028 10006 21017 53001
Pressure 30.22 in
Visibility 10.0 miles
Clouds Clear
Windchill 29 °F
Dew Point 29 °F
Humidity 99%
Rainfall 0.00 in
Snow Depth Not available.
6:33 AM 5:32 PM
Waxing Crescent, 11% visible
METAR KGZH 111153Z AUTO 00000KT 10SM CLR M01/M03 A3021 RMK AO2 SLP232 T10111028 10006 21017 53001

10-Day Weather Forecast

Almanac

Astronomy

Feb. 11, 2016 Rise Set
Actual Time
Civil Twilight
Nautical Twilight
Astronomical Twilight
Moon
Length of Visible Light
Length of Day
Tomorrow will be .
, % of the Moon is Illuminated

Today's Extremes

State Highs State Lows

Community

WunderPhotos

Upload Photos

1,892,035 photos uploaded!

WunderBlog® & News

Nearby

Air Quality

  Air Quality AQ Index Pollutant
Not available.

Snow Depth

Station Depth Elevation

Earthquake Activity

City Distance Mag. Time & Date
Minimum magnitude displayed is 2.5.

Coastal Water Temperatures

Place Temperature

Stations

Nearby Weather Stations

Station Location Temp. Windchill Dew Point Humidity Wind Precip. Elev Updated Type
                   

Watches & Warnings

There are currently no watches in effect.